Time;durP1;ratioP1;P1;durP2;ratioP2;P2;SDS_P1;SDS_P2;PMS_P1;PMS_P2;Temp;Humidity;BMP_temperature;BMP_pressure;BME280_temperature;BME280_humidity;BME280_pressure;Samples;Min_cycle;Max_cycle;Signal;HPM_P1;HPM_P2
2022/07/31 00:00:21;;;;;;;3.58;2.38;;;22.30;56.30;;;;;;5009106;28;20022;-67
2022/07/31 00:02:47;;;;;;;3.85;2.60;;;22.30;56.40;;;;;;5007378;28;20033;-67
2022/07/31 00:05:13;;;;;;;2.70;1.95;;;22.20;56.60;;;;;;5008158;28;20026;-65
2022/07/31 00:07:38;;;;;;;5.45;2.38;;;22.20;56.40;;;;;;5003131;28;20030;-66
2022/07/31 00:10:05;;;;;;;4.13;2.38;;;22.20;56.60;;;;;;5001906;28;20018;-66
2022/07/31 00:12:31;;;;;;;4.05;2.10;;;22.20;56.60;;;;;;5009582;28;20022;-66
2022/07/31 00:14:56;;;;;;;2.53;2.00;;;22.20;56.70;;;;;;5009681;28;20385;-66
2022/07/31 00:17:22;;;;;;;4.10;2.63;;;22.10;56.70;;;;;;5010646;28;20516;-68
2022/07/31 00:19:48;;;;;;;2.42;1.95;;;22.10;56.90;;;;;;5009808;28;20385;-68
2022/07/31 00:22:14;;;;;;;3.00;2.20;;;22.10;56.90;;;;;;5008598;28;20037;-68
2022/07/31 00:24:39;;;;;;;4.20;2.20;;;22.10;56.90;;;;;;5003699;28;20022;-67
2022/07/31 00:27:05;;;;;;;2.75;2.05;;;22.10;57.00;;;;;;5005201;28;20384;-66
2022/07/31 00:29:30;;;;;;;2.20;1.73;;;22.10;57.00;;;;;;5003787;28;20395;-66
2022/07/31 00:31:56;;;;;;;2.17;1.95;;;22.10;56.90;;;;;;5009202;28;20022;-65
2022/07/31 00:34:22;;;;;;;3.92;1.77;;;22.00;57.00;;;;;;5007019;28;20030;-66
2022/07/31 00:36:48;;;;;;;3.72;2.10;;;22.00;57.00;;;;;;5006830;28;20018;-65
2022/07/31 00:39:14;;;;;;;2.95;2.10;;;21.90;57.40;;;;;;5007700;28;20477;-66
2022/07/31 00:41:42;;;;;;;4.25;2.38;;;21.80;57.60;;;;;;5006240;28;20062;-65
2022/07/31 00:44:11;;;;;;;3.80;2.08;;;21.80;57.80;;;;;;5003091;28;20440;-66
2022/07/31 00:46:37;;;;;;;2.22;1.70;;;21.80;57.80;;;;;;5006221;28;20065;-66
2022/07/31 00:49:03;;;;;;;3.45;2.28;;;21.80;57.80;;;;;;5003496;28;20050;-65
2022/07/31 00:51:28;;;;;;;2.38;1.90;;;21.80;58.10;;;;;;5007718;28;20044;-65
2022/07/31 00:53:55;;;;;;;3.80;2.22;;;21.70;58.20;;;;;;5007526;28;20030;-65
2022/07/31 00:56:20;;;;;;;2.55;1.88;;;21.70;58.40;;;;;;5009718;28;20045;-65
2022/07/31 00:58:46;;;;;;;2.67;2.00;;;21.70;58.20;;;;;;5008509;28;20083;-65
2022/07/31 01:01:12;;;;;;;2.85;1.83;;;21.70;58.20;;;;;;5009051;28;20029;-66
2022/07/31 01:03:37;;;;;;;3.40;1.90;;;21.80;58.10;;;;;;5005808;28;20029;-65
2022/07/31 01:06:03;;;;;;;2.55;1.95;;;21.80;58.20;;;;;;5002862;28;20034;-65
2022/07/31 01:08:29;;;;;;;3.20;2.17;;;21.80;58.80;;;;;;5004297;28;20038;-65
2022/07/31 01:11:07;;;;;;;4.07;2.40;;;21.80;58.20;;;;;;5007712;28;20503;-65
2022/07/31 01:13:38;;;;;;;2.28;2.08;;;21.70;58.40;;;;;;5006036;28;20105;-66
2022/07/31 01:16:07;;;;;;;2.67;2.08;;;21.70;58.40;;;;;;5003003;28;20026;-65
2022/07/31 01:18:35;;;;;;;2.97;1.80;;;21.70;58.50;;;;;;4992648;28;20440;-66
2022/07/31 01:21:07;;;;;;;2.40;1.70;;;21.70;58.40;;;;;;5004793;28;20033;-66
2022/07/31 01:24:04;;;;;;;1.92;1.75;;;21.70;58.50;;;;;;5001200;28;20045;-65
2022/07/31 01:26:39;;;;;;;2.33;1.40;;;21.80;58.30;;;;;;4997826;28;20115;-66
2022/07/31 01:29:13;;;;;;;2.47;1.70;;;21.80;58.30;;;;;;5004576;28;20033;-65
2022/07/31 01:31:48;;;;;;;2.03;1.60;;;21.80;58.20;;;;;;5008229;28;20029;-65
2022/07/31 01:34:38;;;;;;;2.13;1.55;;;21.80;58.10;;;;;;4994776;28;20033;-66
2022/07/31 01:37:14;;;;;;;2.85;1.55;;;21.80;58.00;;;;;;5003657;28;20084;-66
2022/07/31 01:39:45;;;;;;;2.00;1.48;;;21.90;58.10;;;;;;5007593;28;20041;-66
2022/07/31 01:42:15;;;;;;;2.55;1.70;;;21.90;58.10;;;;;;5005689;28;20052;-66
2022/07/31 01:44:46;;;;;;;1.63;1.50;;;21.90;58.10;;;;;;4998872;28;20033;-66
2022/07/31 01:47:18;;;;;;;2.13;1.80;;;21.90;58.20;;;;;;5010546;28;20107;-66
2022/07/31 01:49:44;;;;;;;;;;;21.90;58.10;;;;;;5009743;28;20025;-66
2022/07/31 01:52:11;;;;;;;1.30;1.20;;;21.90;58.00;;;;;;5007699;28;19913;-66
2022/07/31 01:54:38;;;;;;;4.68;1.70;;;21.90;58.10;;;;;;4995242;28;20026;-67
2022/07/31 01:57:06;;;;;;;2.78;1.50;;;21.80;58.10;;;;;;5001129;28;20029;-67
2022/07/31 01:59:33;;;;;;;2.42;1.50;;;21.90;58.10;;;;;;4995412;28;20033;-66
2022/07/31 02:02:02;;;;;;;1.40;1.30;;;21.80;58.30;;;;;;4998816;28;20393;-66
2022/07/31 02:04:28;;;;;;;1.65;1.55;;;21.80;58.50;;;;;;5010963;28;20038;-66
2022/07/31 02:06:54;;;;;;;1.88;1.38;;;21.80;58.60;;;;;;5006058;28;20033;-68
2022/07/31 02:09:22;;;;;;;2.50;1.70;;;21.80;58.80;;;;;;5012199;28;20014;-66
2022/07/31 02:11:49;;;;;;;2.70;1.60;;;21.80;58.90;;;;;;5010204;28;20511;-67
2022/07/31 02:14:17;;;;;;;2.45;1.70;;;21.80;58.90;;;;;;5002327;28;20097;-66
2022/07/31 02:16:45;;;;;;;3.05;1.70;;;21.80;58.90;;;;;;5008493;28;20018;-67
2022/07/31 02:19:13;;;;;;;2.38;1.77;;;21.80;58.90;;;;;;5009130;28;20030;-67
2022/07/31 02:21:39;;;;;;;2.40;1.58;;;21.80;58.90;;;;;;5001463;28;20140;-67
2022/07/31 02:24:05;;;;;;;2.72;1.77;;;21.80;58.90;;;;;;5012095;28;20052;-67
2022/07/31 02:26:32;;;;;;;2.40;1.67;;;21.80;58.80;;;;;;5012568;28;20540;-67
2022/07/31 02:28:58;;;;;;;2.47;1.40;;;21.90;58.80;;;;;;5005764;28;20028;-67
2022/07/31 02:31:24;;;;;;;1.98;1.60;;;21.80;58.90;;;;;;5003660;28;20102;-68
2022/07/31 02:33:51;;;;;;;1.95;1.45;;;21.80;59.00;;;;;;5006569;28;20489;-68
2022/07/31 02:36:18;;;;;;;3.17;1.80;;;21.80;59.00;;;;;;5004369;28;20026;-68
2022/07/31 02:38:44;;;;;;;2.20;1.70;;;21.80;59.00;;;;;;5010298;28;20025;-68
2022/07/31 02:41:11;;;;;;;2.13;1.60;;;21.90;59.00;;;;;;5008288;28;20044;-68
2022/07/31 02:43:38;;;;;;;2.47;1.63;;;21.90;59.00;;;;;;5008444;28;20018;-67
2022/07/31 02:46:05;;;;;;;2.33;1.73;;;21.80;59.10;;;;;;5008440;28;20100;-67
2022/07/31 02:48:31;;;;;;;2.85;1.42;;;21.80;59.20;;;;;;5011883;28;20029;-66
2022/07/31 02:50:57;;;;;;;2.55;1.38;;;21.80;59.30;;;;;;5010146;28;20018;-67
2022/07/31 02:53:24;;;;;;;2.22;1.40;;;21.70;59.50;;;;;;5008901;28;20043;-67
2022/07/31 02:55:51;;;;;;;3.10;1.92;;;21.70;59.70;;;;;;5010310;28;20080;-67
2022/07/31 02:58:16;;;;;;;1.80;1.50;;;21.70;59.80;;;;;;5005215;28;20049;-68
2022/07/31 03:00:42;;;;;;;2.63;1.70;;;21.70;59.80;;;;;;4994449;28;20688;-67
2022/07/31 03:03:07;;;;;;;1.55;1.40;;;21.70;59.70;;;;;;5004260;28;20065;-67
2022/07/31 03:05:33;;;;;;;1.65;1.40;;;21.80;59.70;;;;;;5009360;28;20050;-67
2022/07/31 03:07:59;;;;;;;2.13;1.70;;;21.80;59.60;;;;;;5010318;28;20124;-67
2022/07/31 03:10:26;;;;;;;1.42;1.33;;;21.80;59.60;;;;;;5004351;28;20029;-67
2022/07/31 03:12:54;;;;;;;3.20;1.50;;;21.80;59.70;;;;;;5008944;28;21285;-66
2022/07/31 03:15:24;;;;;;;1.38;1.27;;;21.70;59.90;;;;;;5003168;28;20022;-67
2022/07/31 03:17:50;;;;;;;2.95;1.52;;;21.60;60.00;;;;;;5009184;28;20030;-67
2022/07/31 03:20:17;;;;;;;3.10;1.48;;;21.60;60.20;;;;;;5010414;28;20471;-67
2022/07/31 03:22:43;;;;;;;2.25;1.42;;;21.60;60.20;;;;;;5003254;28;20493;-68
2022/07/31 03:25:09;;;;;;;1.73;1.48;;;21.70;60.10;;;;;;5009632;28;20485;-68
2022/07/31 03:27:35;;;;;;;2.60;1.60;;;21.70;60.00;;;;;;4995955;28;20051;-68
2022/07/31 03:30:01;;;;;;;1.85;1.40;;;21.70;60.00;;;;;;5006202;28;20052;-67
2022/07/31 03:32:27;;;;;;;3.05;1.63;;;21.70;60.00;;;;;;5004756;28;20745;-67
2022/07/31 03:34:52;;;;;;;2.22;1.70;;;21.70;60.00;;;;;;5010119;28;20026;-67
2022/07/31 03:37:18;;;;;;;2.13;1.60;;;21.70;60.00;;;;;;5006164;28;20492;-67
2022/07/31 03:39:44;;;;;;;2.20;1.40;;;21.70;60.00;;;;;;5010407;28;20057;-67
2022/07/31 03:42:10;;;;;;;2.83;1.70;;;21.70;60.00;;;;;;5006757;28;20239;-67
2022/07/31 03:44:37;;;;;;;2.97;1.63;;;21.60;60.00;;;;;;5009752;28;20034;-68
2022/07/31 03:47:03;;;;;;;3.00;2.00;;;21.60;60.00;;;;;;4994817;28;20034;-68
2022/07/31 03:49:31;;;;;;;4.53;1.98;;;21.60;60.30;;;;;;5008839;28;20021;-68
2022/07/31 03:51:57;;;;;;;1.80;1.58;;;21.60;60.30;;;;;;5009857;28;20029;-68
2022/07/31 03:54:23;;;;;;;2.50;1.65;;;21.60;60.20;;;;;;5008563;28;20026;-67
2022/07/31 03:56:51;;;;;;;2.20;1.90;;;21.50;60.30;;;;;;5009406;28;20140;-67
2022/07/31 03:59:17;;;;;;;3.67;2.28;;;21.60;60.40;;;;;;5010928;28;20026;-67
2022/07/31 04:01:43;;;;;;;3.15;2.00;;;21.50;60.40;;;;;;5006908;28;20030;-66
2022/07/31 04:04:10;;;;;;;2.60;2.00;;;21.50;60.70;;;;;;5008927;28;20022;-67
2022/07/31 04:06:35;;;;;;;2.42;1.85;;;21.50;60.70;;;;;;5008470;28;20033;-67
2022/07/31 04:09:01;;;;;;;3.35;2.65;;;21.50;60.80;;;;;;5009222;28;20074;-66
2022/07/31 04:11:27;;;;;;;3.95;2.33;;;21.50;61.00;;;;;;5009487;28;20026;-66
2022/07/31 04:13:53;;;;;;;4.20;2.20;;;21.40;61.10;;;;;;5008433;28;20026;-66
2022/07/31 04:16:18;;;;;;;5.20;2.90;;;21.40;61.20;;;;;;4999531;28;20439;-66
2022/07/31 04:18:44;;;;;;;3.53;2.50;;;21.40;61.40;;;;;;5002087;28;20101;-66
2022/07/31 04:21:10;;;;;;;3.90;2.50;;;21.40;61.40;;;;;;4991111;28;20060;-66
2022/07/31 04:23:35;;;;;;;3.22;2.45;;;21.40;61.40;;;;;;5001248;28;20486;-66
2022/07/31 04:26:01;;;;;;;4.25;2.20;;;21.40;61.50;;;;;;5007684;28;20084;-67
2022/07/31 04:28:26;;;;;;;3.83;2.47;;;21.40;61.40;;;;;;5006928;28;20022;-67
2022/07/31 04:30:52;;;;;;;2.97;2.40;;;21.40;61.60;;;;;;5009940;28;20036;-67
2022/07/31 04:33:18;;;;;;;2.90;2.38;;;21.40;61.70;;;;;;5004994;28;20443;-67
2022/07/31 04:35:43;;;;;;;2.72;2.10;;;21.30;62.00;;;;;;4994155;28;20061;-68
2022/07/31 04:38:10;;;;;;;2.67;1.80;;;21.30;62.20;;;;;;5000987;28;20088;-66
2022/07/31 04:40:36;;;;;;;4.85;2.65;;;21.30;62.40;;;;;;5000028;28;20042;-66
2022/07/31 04:43:02;;;;;;;3.88;2.38;;;21.30;63.20;;;;;;5005014;28;20025;-66
2022/07/31 04:45:27;;;;;;;4.07;2.30;;;21.30;63.40;;;;;;5008891;28;20018;-66
2022/07/31 04:47:53;;;;;;;3.63;2.40;;;21.30;63.60;;;;;;5004623;28;20030;-66
2022/07/31 04:50:19;;;;;;;4.43;2.60;;;21.30;63.80;;;;;;5007221;28;20034;-67
2022/07/31 04:52:44;;;;;;;3.38;2.03;;;21.20;64.10;;;;;;5008586;28;20397;-68
2022/07/31 04:55:10;;;;;;;4.03;2.55;;;21.30;64.20;;;;;;5006210;28;20385;-68
2022/07/31 04:57:35;;;;;;;3.05;2.00;;;21.20;64.60;;;;;;5006874;28;20490;-68
2022/07/31 05:00:01;;;;;;;3.25;2.15;;;21.30;64.60;;;;;;5002196;28;20033;-67
2022/07/31 05:02:26;;;;;;;2.67;2.33;;;21.30;64.90;;;;;;5006985;28;20033;-67
2022/07/31 05:04:52;;;;;;;4.38;2.00;;;21.30;64.80;;;;;;5003837;28;20030;-67
2022/07/31 05:07:17;;;;;;;4.38;2.60;;;21.40;64.70;;;;;;5007167;28;20030;-67
2022/07/31 05:09:43;;;;;;;4.10;2.92;;;21.40;64.80;;;;;;5003405;28;20097;-67
2022/07/31 05:12:08;;;;;;;4.40;2.67;;;21.40;64.90;;;;;;5006495;28;20449;-67
2022/07/31 05:14:34;;;;;;;5.03;2.83;;;21.40;64.90;;;;;;5002920;28;20033;-67
2022/07/31 05:16:59;;;;;;;5.13;2.80;;;21.40;64.90;;;;;;4996593;28;20026;-67
2022/07/31 05:19:29;;;;;;;5.07;2.90;;;21.50;65.10;;;;;;4997412;28;20476;-67
2022/07/31 05:21:56;;;;;;;5.22;3.58;;;21.50;65.10;;;;;;5009498;28;20025;-67
2022/07/31 05:24:22;;;;;;;4.10;3.10;;;21.50;65.30;;;;;;5000967;28;20022;-67
2022/07/31 05:26:47;;;;;;;4.63;3.65;;;21.40;65.40;;;;;;4994671;28;20029;-67
2022/07/31 05:29:13;;;;;;;5.28;3.63;;;21.40;65.70;;;;;;5003681;28;20026;-67
2022/07/31 05:31:38;;;;;;;4.72;3.20;;;21.40;65.80;;;;;;4995923;28;20071;-67
2022/07/31 05:34:04;;;;;;;4.15;2.97;;;21.40;65.80;;;;;;5010476;28;20440;-67
2022/07/31 05:36:29;;;;;;;4.18;3.13;;;21.50;65.80;;;;;;5005044;28;20034;-67
2022/07/31 05:38:55;;;;;;;4.45;3.05;;;21.50;65.70;;;;;;5007564;28;20499;-67
2022/07/31 05:41:21;;;;;;;4.88;3.85;;;21.60;65.50;;;;;;5000153;28;20039;-67
2022/07/31 05:43:46;;;;;;;4.07;3.42;;;21.60;65.70;;;;;;5007591;28;20084;-67
2022/07/31 05:46:16;;;;;;;3.55;2.80;;;21.60;65.60;;;;;;5005405;28;20033;-67
2022/07/31 05:48:42;;;;;;;5.88;3.75;;;21.70;65.60;;;;;;5007960;28;20022;-67
2022/07/31 05:51:12;;;;;;;4.80;3.58;;;21.80;65.40;;;;;;5012504;28;20014;-66
2022/07/31 05:53:39;;;;;;;4.05;3.20;;;21.80;65.40;;;;;;5004853;28;20022;-66
2022/07/31 05:56:05;;;;;;;5.68;3.97;;;21.90;65.20;;;;;;5007522;28;20018;-66
2022/07/31 05:58:31;;;;;;;5.78;3.90;;;22.00;65.10;;;;;;4997972;28;20033;-66
2022/07/31 06:00:57;;;;;;;5.68;4.10;;;21.90;65.10;;;;;;5004330;28;20022;-67
2022/07/31 06:03:24;;;;;;;8.52;4.25;;;21.90;65.40;;;;;;5007861;28;20022;-67
2022/07/31 06:05:50;;;;;;;5.95;3.83;;;21.90;65.60;;;;;;5004602;28;20508;-67
2022/07/31 06:08:16;;;;;;;5.45;3.75;;;21.80;65.50;;;;;;5012638;28;20021;-66
2022/07/31 06:10:42;;;;;;;5.72;4.53;;;21.80;65.60;;;;;;5009320;28;20026;-66
2022/07/31 06:13:08;;;;;;;5.28;4.10;;;21.70;65.80;;;;;;5012778;28;20029;-67
2022/07/31 06:15:33;;;;;;;7.47;4.55;;;21.70;65.90;;;;;;4994952;28;20097;-66
2022/07/31 06:17:59;;;;;;;4.53;3.28;;;21.70;66.20;;;;;;5005083;28;20041;-66
2022/07/31 06:20:25;;;;;;;7.00;4.72;;;21.70;66.00;;;;;;5005359;28;20037;-65
2022/07/31 06:22:51;;;;;;;7.38;5.32;;;21.60;66.30;;;;;;4999407;28;20109;-66
2022/07/31 06:25:17;;;;;;;7.10;5.78;;;21.60;66.50;;;;;;5004909;28;20616;-66
2022/07/31 06:27:42;;;;;;;5.90;4.95;;;21.60;66.70;;;;;;5008964;28;20250;-66
2022/07/31 06:30:09;;;;;;;6.10;4.25;;;21.50;66.80;;;;;;5006668;28;20392;-66
2022/07/31 06:32:35;;;;;;;5.13;3.85;;;21.50;66.90;;;;;;5007846;28;20029;-66
2022/07/31 06:35:00;;;;;;;6.75;5.15;;;21.50;67.00;;;;;;5003966;28;20451;-67
2022/07/31 06:37:26;;;;;;;5.85;4.45;;;21.50;67.00;;;;;;5007980;28;20049;-67
2022/07/31 06:39:53;;;;;;;6.95;5.90;;;21.40;67.10;;;;;;5004807;28;20038;-67
2022/07/31 06:42:22;;;;;;;10.00;6.95;;;21.40;67.40;;;;;;5008663;28;20113;-67
2022/07/31 06:44:48;;;;;;;7.93;6.30;;;21.40;67.60;;;;;;5006342;28;20031;-67
2022/07/31 06:47:15;;;;;;;8.18;6.28;;;21.40;67.80;;;;;;5011494;28;20033;-67
2022/07/31 06:49:40;;;;;;;9.10;7.75;;;21.30;68.00;;;;;;5000750;28;20080;-66
2022/07/31 06:52:06;;;;;;;7.35;5.47;;;21.40;68.20;;;;;;5004230;28;20026;-66
2022/07/31 06:54:32;;;;;;;6.63;5.70;;;21.40;68.10;;;;;;5003601;28;20031;-66
2022/07/31 06:56:57;;;;;;;6.95;5.85;;;21.50;68.00;;;;;;5011130;28;20032;-67
2022/07/31 06:59:23;;;;;;;8.38;6.72;;;21.50;67.80;;;;;;5009738;28;20018;-66
2022/07/31 07:01:48;;;;;;;7.50;6.30;;;21.50;67.80;;;;;;5009579;28;20025;-66
2022/07/31 07:04:14;;;;;;;9.27;5.97;;;21.50;68.00;;;;;;5007983;28;20066;-67
2022/07/31 07:06:39;;;;;;;9.15;6.30;;;21.50;68.10;;;;;;5012021;28;20037;-67
2022/07/31 07:09:05;;;;;;;10.73;8.15;;;21.50;68.10;;;;;;5008004;28;20037;-68
2022/07/31 07:11:31;;;;;;;8.07;7.10;;;21.40;68.50;;;;;;5011682;28;20026;-67
2022/07/31 07:13:56;;;;;;;9.05;7.05;;;21.40;68.50;;;;;;5008461;28;20022;-66
2022/07/31 07:16:22;;;;;;;9.82;6.90;;;21.40;68.40;;;;;;5005173;28;20045;-66
2022/07/31 07:18:47;;;;;;;10.30;8.48;;;21.40;68.40;;;;;;5009171;28;20100;-66
2022/07/31 07:21:13;;;;;;;8.00;6.20;;;21.40;68.60;;;;;;5007720;28;20088;-66
2022/07/31 07:23:39;;;;;;;8.32;6.78;;;21.30;68.70;;;;;;5011121;28;20060;-66
2022/07/31 07:26:05;;;;;;;8.13;6.53;;;21.30;68.70;;;;;;5023764;28;20022;-67
2022/07/31 07:28:30;;;;;;;9.80;7.35;;;21.30;68.70;;;;;;5010520;28;20057;-69
2022/07/31 07:30:56;;;;;;;9.45;8.02;;;21.30;68.60;;;;;;5010315;28;20022;-67
2022/07/31 07:33:21;;;;;;;8.05;5.57;;;21.40;68.80;;;;;;5011100;28;20072;-67
2022/07/31 07:35:47;;;;;;;8.48;7.55;;;21.40;68.70;;;;;;5002833;28;20030;-67
2022/07/31 07:38:12;;;;;;;8.95;7.18;;;21.40;68.70;;;;;;5010055;28;20026;-67
2022/07/31 07:40:39;;;;;;;7.18;6.10;;;21.40;68.80;;;;;;5003030;28;20092;-66
2022/07/31 07:43:04;;;;;;;6.68;4.95;;;21.40;68.80;;;;;;5002636;28;20444;-66
2022/07/31 07:45:30;;;;;;;7.75;6.18;;;21.50;68.70;;;;;;5003354;28;20021;-66
2022/07/31 07:47:56;;;;;;;9.13;8.00;;;21.50;68.80;;;;;;5007787;28;20037;-66
2022/07/31 07:50:21;;;;;;;14.20;10.77;;;21.60;68.80;;;;;;5005179;28;20026;-67
2022/07/31 07:52:48;;;;;;;9.75;7.28;;;21.50;69.10;;;;;;5003532;28;20052;-67
2022/07/31 07:55:14;;;;;;;9.45;6.82;;;21.50;69.20;;;;;;5007314;28;20018;-67
2022/07/31 07:57:44;;;;;;;8.65;5.95;;;21.50;69.20;;;;;;5005499;28;20026;-67
2022/07/31 08:00:11;;;;;;;6.43;5.22;;;21.40;69.10;;;;;;5009386;28;20040;-67
2022/07/31 08:02:37;;;;;;;5.80;5.10;;;21.50;69.00;;;;;;5002048;28;20026;-67
2022/07/31 08:05:03;;;;;;;6.53;4.93;;;21.60;68.90;;;;;;5001103;28;20032;-67
2022/07/31 08:07:31;;;;;;;7.50;5.60;;;21.70;68.70;;;;;;5001317;28;20109;-66
2022/07/31 08:09:58;;;;;;;6.93;5.03;;;21.70;68.60;;;;;;5004208;28;20026;-67
2022/07/31 08:12:24;;;;;;;8.70;7.60;;;21.70;68.60;;;;;;5001381;28;20037;-67
2022/07/31 08:14:50;;;;;;;7.05;5.82;;;21.80;68.80;;;;;;5003980;28;20028;-66
2022/07/31 08:17:15;;;;;;;7.18;5.25;;;21.80;68.70;;;;;;5001901;28;20443;-67
2022/07/31 08:19:41;;;;;;;7.88;5.60;;;21.90;68.60;;;;;;4998944;28;20037;-66
2022/07/31 08:22:07;;;;;;;8.30;5.82;;;21.90;68.60;;;;;;5003631;28;20025;-66
2022/07/31 08:24:33;;;;;;;6.63;4.75;;;21.90;68.60;;;;;;4999982;28;20523;-67
2022/07/31 08:29:44;;;;;;;7.40;5.57;;;22.10;68.30;;;;;;5000458;28;20100;-66
2022/07/31 08:32:10;;;;;;;8.77;6.40;;;22.10;68.30;;;;;;5001381;28;20480;-66
2022/07/31 08:34:36;;;;;;;9.30;7.75;;;22.10;68.60;;;;;;5004284;28;20117;-66
2022/07/31 08:37:02;;;;;;;7.38;5.63;;;22.00;68.90;;;;;;5000938;28;20076;-66
2022/07/31 08:39:28;;;;;;;6.47;4.40;;;22.00;68.90;;;;;;5001517;28;20068;-66
2022/07/31 08:41:54;;;;;;;9.50;6.80;;;22.10;68.60;;;;;;4999303;28;20034;-66
2022/07/31 08:44:19;;;;;;;11.32;7.82;;;22.20;68.50;;;;;;5000938;28;20034;-66
2022/07/31 08:46:46;;;;;;;9.18;7.00;;;22.20;68.70;;;;;;5002755;28;20037;-66
2022/07/31 08:49:14;;;;;;;7.22;5.78;;;22.20;68.90;;;;;;4999869;28;20030;-66
2022/07/31 08:51:42;;;;;;;7.95;5.75;;;22.30;68.80;;;;;;5003209;28;20014;-66
2022/07/31 08:54:09;;;;;;;7.20;5.50;;;22.40;68.60;;;;;;5007308;28;20084;-66
2022/07/31 08:56:36;;;;;;;5.32;4.53;;;22.50;68.20;;;;;;5002331;28;20038;-66
2022/07/31 08:59:03;;;;;;;6.50;4.55;;;22.80;67.90;;;;;;5000783;28;20093;-66
2022/07/31 09:01:31;;;;;;;6.15;4.50;;;23.00;67.30;;;;;;4999490;28;20062;-67
2022/07/31 09:03:58;;;;;;;7.88;5.82;;;23.10;66.90;;;;;;5002627;28;20038;-67
2022/07/31 09:06:24;;;;;;;6.40;4.75;;;23.20;66.60;;;;;;5004712;28;20058;-67
2022/07/31 09:08:49;;;;;;;7.57;4.93;;;23.20;66.40;;;;;;5009707;28;20408;-67
2022/07/31 09:11:15;;;;;;;8.50;7.13;;;23.30;66.40;;;;;;5015566;28;20049;-67
2022/07/31 09:14:02;;;;;;;6.88;5.20;;;23.30;66.00;;;;;;5012786;28;20026;-67
2022/07/31 09:16:29;;;;;;;6.55;5.38;;;23.30;66.10;;;;;;5008999;28;20019;-67
2022/07/31 09:19:00;;;;;;;5.82;4.85;;;23.10;66.20;;;;;;5009263;28;20034;-67
2022/07/31 09:21:37;;;;;;;5.95;4.70;;;23.10;66.40;;;;;;5011207;28;20018;-67
2022/07/31 09:24:02;;;;;;;8.70;5.90;;;23.10;66.70;;;;;;5009351;28;20025;-67
2022/07/31 09:26:33;;;;;;;6.63;5.43;;;23.10;66.90;;;;;;5010063;28;20026;-68
2022/07/31 09:28:59;;;;;;;5.20;4.05;;;23.10;66.90;;;;;;5010454;28;20033;-67
2022/07/31 09:31:31;;;;;;;6.03;4.72;;;23.20;66.80;;;;;;5011698;28;20109;-67
2022/07/31 09:33:57;;;;;;;4.35;3.65;;;23.30;66.60;;;;;;5011400;28;20026;-67
2022/07/31 09:36:23;;;;;;;5.68;4.38;;;23.50;66.40;;;;;;5011087;28;20028;-67
2022/07/31 09:38:49;;;;;;;6.85;4.10;;;23.50;66.30;;;;;;5009131;28;20034;-67
2022/07/31 09:41:19;;;;;;;7.00;5.40;;;23.60;66.20;;;;;;5007230;28;20040;-67
2022/07/31 09:43:59;;;;;;;6.05;4.68;;;23.70;66.10;;;;;;5009105;28;20030;-67
2022/07/31 09:46:26;;;;;;;8.35;5.95;;;23.70;66.10;;;;;;5008794;28;20629;-67
2022/07/31 09:48:57;;;;;;;6.90;4.85;;;23.70;66.40;;;;;;5008447;28;20034;-67
2022/07/31 09:51:23;;;;;;;6.03;4.20;;;23.70;66.60;;;;;;5010045;28;20026;-67
2022/07/31 09:53:55;;;;;;;6.15;5.07;;;23.70;66.80;;;;;;5011160;28;20022;-67
2022/07/31 09:56:34;;;;;;;8.13;5.68;;;23.60;66.90;;;;;;5004633;28;20072;-68
2022/07/31 09:59:00;;;;;;;8.07;6.30;;;23.50;67.30;;;;;;5010581;28;20429;-67
2022/07/31 10:01:26;;;;;;;9.93;6.55;;;23.30;67.60;;;;;;5010696;28;20037;-67
2022/07/31 10:03:54;;;;;;;5.65;4.55;;;23.20;68.10;;;;;;5010684;28;20049;-66
2022/07/31 10:06:21;;;;;;;6.80;5.22;;;23.20;68.30;;;;;;5007592;28;20120;-66
2022/07/31 10:08:48;;;;;;;8.73;6.72;;;23.10;68.70;;;;;;5005898;28;20026;-66
2022/07/31 10:11:17;;;;;;;7.85;6.20;;;23.00;69.40;;;;;;5010066;28;20068;-66
2022/07/31 10:13:46;;;;;;;7.80;5.93;;;23.00;69.60;;;;;;5010412;28;20087;-67
2022/07/31 10:16:13;;;;;;;7.10;5.30;;;23.00;69.90;;;;;;5007374;28;20100;-67
2022/07/31 10:18:44;;;;;;;6.50;5.10;;;23.10;70.00;;;;;;5005422;28;20027;-67
2022/07/31 10:21:10;;;;;;;7.50;5.78;;;23.10;70.00;;;;;;5007600;28;20519;-68
2022/07/31 10:23:40;;;;;;;9.20;6.45;;;23.10;70.20;;;;;;5007586;28;20087;-67
2022/07/31 10:26:05;;;;;;;7.95;6.57;;;23.10;70.60;;;;;;5010777;28;20087;-67
2022/07/31 10:28:31;;;;;;;8.43;6.18;;;23.00;71.50;;;;;;5019761;28;20026;-67
2022/07/31 10:30:57;;;;;;;10.30;8.30;;;23.00;71.10;;;;;;5011692;28;20026;-67
2022/07/31 10:33:25;;;;;;;10.75;6.57;;;23.00;71.80;;;;;;5008593;28;20381;-67
2022/07/31 10:35:53;;;;;;;7.75;6.07;;;23.00;72.10;;;;;;5006817;28;20933;-67
2022/07/31 10:38:44;;;;;;;13.85;8.73;;;23.00;72.20;;;;;;5004407;28;20056;-66
2022/07/31 10:41:45;;;;;;;8.63;6.97;;;23.00;72.40;;;;;;5006011;28;20523;-67
2022/07/31 10:44:32;;;;;;;9.45;7.28;;;23.10;72.50;;;;;;4986631;28;20484;-67
2022/07/31 10:46:58;;;;;;;11.68;8.70;;;23.10;72.60;;;;;;5003535;28;20049;-67
2022/07/31 10:49:47;;;;;;;10.13;8.13;;;23.10;72.70;;;;;;5009459;28;20069;-67
2022/07/31 10:52:14;;;;;;;11.90;9.18;;;23.10;72.90;;;;;;5008878;28;20018;-67
2022/07/31 10:54:43;;;;;;;11.05;9.18;;;23.00;73.10;;;;;;5003737;28;20113;-67
2022/07/31 10:57:24;;;;;;;9.38;7.70;;;23.10;73.40;;;;;;5008378;28;20101;-67
2022/07/31 10:59:49;;;;;;;12.48;10.20;;;23.20;73.20;;;;;;5005562;28;20974;-67
2022/07/31 11:02:29;;;;;;;10.50;8.32;;;23.30;73.20;;;;;;5007212;28;20117;-67
2022/07/31 11:05:22;;;;;;;8.85;7.43;;;23.20;73.10;;;;;;5006611;28;20022;-67
2022/07/31 11:08:00;;;;;;;16.58;14.05;;;23.40;72.50;;;;;;5008940;28;20042;-67
2022/07/31 11:10:26;;;;;;;9.15;8.20;;;23.30;72.00;;;;;;5010173;28;20102;-67
2022/07/31 11:13:06;;;;;;;9.23;8.20;;;23.30;72.20;;;;;;5011574;28;20053;-66
2022/07/31 11:15:32;;;;;;;9.00;8.10;;;23.30;72.10;;;;;;5016794;28;20030;-67
2022/07/31 11:17:58;;;;;;;12.75;11.30;;;23.30;72.20;;;;;;5010222;28;20026;-67
2022/07/31 11:20:28;;;;;;;11.07;8.85;;;23.20;73.00;;;;;;5002943;28;20481;-67
2022/07/31 11:23:03;;;;;;;10.88;9.52;;;23.10;72.70;;;;;;5007375;28;20468;-67
2022/07/31 11:25:31;;;;;;;10.23;9.23;;;23.00;73.00;;;;;;5009229;28;20387;-67
2022/07/31 11:28:08;;;;;;;10.93;9.52;;;23.10;73.10;;;;;;5006343;28;20396;-67
2022/07/31 11:30:45;;;;;;;12.68;10.40;;;23.10;73.30;;;;;;4999600;28;20122;-68
2022/07/31 11:33:11;;;;;;;10.77;9.63;;;23.10;73.40;;;;;;5008139;28;20025;-67
2022/07/31 11:35:38;;;;;;;9.18;8.27;;;23.10;73.60;;;;;;5003902;28;21133;-67
2022/07/31 11:38:03;;;;;;;8.80;7.90;;;23.20;73.50;;;;;;5006184;28;20069;-67
2022/07/31 11:40:29;;;;;;;13.10;11.38;;;23.30;73.40;;;;;;5007472;28;20030;-68
2022/07/31 11:42:56;;;;;;;10.00;8.95;;;23.30;73.40;;;;;;5006870;28;20459;-67
2022/07/31 11:45:22;;;;;;;13.50;12.10;;;23.30;73.70;;;;;;5008808;28;20025;-67
2022/07/31 11:47:48;;;;;;;8.07;7.28;;;23.20;74.00;;;;;;5007749;28;20108;-67
2022/07/31 11:50:14;;;;;;;12.07;10.80;;;23.20;74.10;;;;;;5005674;28;20022;-67
2022/07/31 11:52:43;;;;;;;14.88;13.40;;;23.20;74.30;;;;;;5006404;28;20018;-67
2022/07/31 11:55:14;;;;;;;10.90;9.80;;;23.20;74.60;;;;;;5005998;28;20038;-67
2022/07/31 11:57:41;;;;;;;10.70;9.60;;;23.20;74.70;;;;;;5005456;28;20117;-67
2022/07/31 12:00:07;;;;;;;12.95;11.65;;;23.20;74.50;;;;;;5018441;28;20283;-67
2022/07/31 12:02:33;;;;;;;9.80;8.88;;;23.30;74.50;;;;;;5007836;28;20493;-67
2022/07/31 12:05:03;;;;;;;10.65;9.65;;;23.50;74.10;;;;;;5005760;28;20026;-67
2022/07/31 12:07:31;;;;;;;10.75;9.63;;;23.80;73.70;;;;;;5010627;28;20026;-67
2022/07/31 12:09:57;;;;;;;10.93;9.82;;;24.00;73.20;;;;;;5003178;28;20037;-67
2022/07/31 12:12:23;;;;;;;11.70;10.52;;;24.20;72.50;;;;;;5008193;28;20033;-67
2022/07/31 12:14:49;;;;;;;10.90;9.55;;;24.20;71.90;;;;;;5006159;28;20184;-67
2022/07/31 12:17:21;;;;;;;8.68;7.80;;;24.30;71.90;;;;;;5008221;28;20032;-67
2022/07/31 12:19:47;;;;;;;9.25;8.35;;;24.30;71.80;;;;;;5004819;28;20021;-67
2022/07/31 12:22:21;;;;;;;10.13;8.60;;;24.30;71.70;;;;;;5001860;28;20409;-67
2022/07/31 12:25:00;;;;;;;8.63;7.82;;;24.30;71.60;;;;;;5006205;28;20101;-67
2022/07/31 12:27:26;;;;;;;9.50;8.60;;;24.30;71.60;;;;;;5001941;28;20060;-67
2022/07/31 12:29:51;;;;;;;8.25;7.45;;;24.30;71.60;;;;;;5003763;28;20026;-66
2022/07/31 12:32:25;;;;;;;10.15;9.13;;;24.30;71.50;;;;;;5004239;28;20033;-67
2022/07/31 12:35:01;;;;;;;8.10;7.32;;;24.30;71.40;;;;;;5005651;28;20064;-66
2022/07/31 12:37:27;;;;;;;8.48;7.30;;;24.30;71.10;;;;;;5006528;28;20540;-66
2022/07/31 12:39:56;;;;;;;7.68;6.22;;;24.30;71.00;;;;;;5003872;28;20084;-67
2022/07/31 12:42:28;;;;;;;7.47;5.95;;;24.30;70.80;;;;;;5005944;28;20566;-67
2022/07/31 12:44:54;;;;;;;;;;;24.30;70.90;;;;;;5005808;28;20412;-67
2022/07/31 12:47:25;;;;;;;7.43;6.55;;;24.30;70.80;;;;;;5008756;28;19906;-68
2022/07/31 12:49:51;;;;;;;7.80;7.10;;;24.20;70.70;;;;;;5001499;28;20496;-68